createdAt,value
2022-11-06T00:02:28.198Z,75.64
2022-11-06T00:05:02.099Z,76.67
2022-11-06T00:07:31.870Z,77.42
2022-11-06T00:10:01.948Z,76.51
2022-11-06T00:12:31.680Z,76.93
2022-11-06T00:15:01.639Z,76.85
2022-11-06T00:17:31.406Z,76.82
2022-11-06T00:20:01.182Z,77.35
2022-11-06T00:22:35.704Z,77.62
2022-11-06T00:25:07.175Z,77.33
2022-11-06T00:27:42.524Z,76.85
2022-11-06T00:30:14.524Z,76.27
2022-11-06T00:32:44.352Z,76.63
2022-11-06T00:35:14.158Z,76.05
2022-11-06T00:37:43.987Z,76.98
2022-11-06T00:40:14.947Z,76.44
2022-11-06T00:42:44.777Z,76.61
2022-11-06T00:45:14.379Z,77.10
2022-11-06T00:47:44.140Z,77.06
2022-11-06T00:50:14.984Z,77.16
2022-11-06T00:52:45.861Z,77.41
2022-11-06T00:55:15.784Z,77.68
2022-11-06T00:57:45.598Z,77.05
2022-11-06T01:00:17.390Z,77.24
2022-11-06T01:02:48.425Z,77.22
2022-11-06T01:05:18.357Z,77.14
2022-11-06T01:07:48.413Z,76.99
2022-11-06T01:10:18.227Z,77.10
2022-11-06T01:12:48.138Z,77.79
2022-11-06T01:15:18.075Z,77.72
2022-11-06T01:17:48.231Z,77.52
2022-11-06T01:20:18.054Z,77.53
2022-11-06T01:22:48.097Z,77.87
2022-11-06T01:25:17.910Z,77.55
2022-11-06T01:27:48.123Z,78.62
2022-11-06T01:30:18.227Z,78.18
2022-11-06T01:32:48.163Z,78.28
2022-11-06T01:35:17.921Z,78.70
2022-11-06T01:37:47.906Z,78.40
2022-11-06T01:40:17.414Z,77.55
2022-11-06T01:42:47.217Z,77.74
2022-11-06T01:45:26.262Z,77.70
2022-11-06T01:47:56.401Z,77.82
2022-11-06T01:50:26.512Z,77.94
2022-11-06T01:52:58.619Z,78.37
2022-11-06T01:55:31.431Z,78.02
2022-11-06T01:58:04.063Z,77.88
2022-11-06T02:00:34.958Z,77.80
2022-11-06T02:03:05.042Z,78.17
2022-11-06T02:05:35.060Z,77.89
2022-11-06T02:08:06.014Z,77.45
2022-11-06T02:10:35.996Z,77.23
2022-11-06T02:13:11.712Z,77.30
2022-11-06T02:15:52.782Z,77.09
2022-11-06T02:18:46.080Z,76.90
2022-11-06T02:21:40.987Z,77.64
2022-11-06T02:24:32.197Z,77.14
2022-11-06T02:27:16.920Z,76.96
2022-11-06T02:29:52.068Z,77.31
2022-11-06T02:32:36.335Z,76.94
2022-11-06T02:35:19.830Z,76.86
2022-11-06T02:37:53.764Z,76.72
2022-11-06T02:40:27.364Z,77.27
2022-11-06T02:42:58.910Z,77.27
2022-11-06T02:45:31.834Z,76.88
2022-11-06T02:48:04.248Z,76.59
2022-11-06T02:50:37.431Z,77.23
2022-11-06T02:53:09.479Z,77.01
2022-11-06T02:55:42.166Z,76.90
2022-11-06T02:58:26.514Z,76.90
2022-11-06T03:01:07.452Z,76.90
2022-11-06T03:03:40.419Z,76.90
2022-11-06T03:06:16.182Z,76.40
2022-11-06T03:09:03.451Z,76.14
2022-11-06T03:11:38.201Z,76.00
2022-11-06T03:14:17.120Z,75.92
2022-11-06T03:16:58.938Z,75.64
2022-11-06T03:19:37.509Z,75.85
2022-11-06T03:22:12.579Z,75.43
2022-11-06T03:24:48.615Z,75.44
2022-11-06T03:27:36.162Z,75.44
2022-11-06T03:30:15.261Z,75.03
2022-11-06T03:32:53.353Z,75.09
2022-11-06T03:35:26.132Z,75.66
2022-11-06T03:38:04.484Z,75.43
2022-11-06T03:40:37.224Z,75.09
2022-11-06T03:43:09.659Z,75.63
2022-11-06T03:45:42.749Z,75.78
2022-11-06T03:48:19.957Z,75.73
2022-11-06T03:50:52.723Z,75.85
2022-11-06T03:53:30.999Z,75.29
2022-11-06T03:56:12.770Z,76.20
2022-11-06T03:58:45.715Z,75.99
2022-11-06T04:01:18.571Z,75.07
2022-11-06T04:04:02.467Z,75.30
2022-11-06T04:06:37.852Z,74.76
2022-11-06T04:09:28.373Z,75.54
2022-11-06T04:12:18.442Z,75.37
2022-11-06T04:14:51.462Z,75.61
2022-11-06T04:17:23.247Z,74.99
2022-11-06T04:19:56.053Z,75.58
2022-11-06T04:22:48.261Z,75.58
2022-11-06T04:25:44.610Z,75.58
2022-11-06T04:28:38.147Z,75.23
2022-11-06T04:31:28.770Z,75.89
2022-11-06T04:34:01.588Z,75.66
2022-11-06T04:36:34.397Z,75.84
2022-11-06T04:39:25.087Z,75.84
2022-11-06T04:42:13.951Z,75.29
2022-11-06T04:44:46.906Z,75.89
2022-11-06T04:47:19.860Z,75.99
2022-11-06T04:49:52.222Z,76.33
2022-11-06T04:52:25.050Z,76.57
2022-11-06T04:54:57.062Z,76.19
2022-11-06T04:57:27.555Z,76.86
2022-11-06T04:59:57.604Z,76.97
2022-11-06T05:02:27.223Z,76.33
2022-11-06T05:04:57.009Z,76.52
2022-11-06T05:07:26.750Z,76.38
2022-11-06T05:09:56.323Z,76.77
2022-11-06T05:12:25.925Z,76.29
2022-11-06T05:14:56.037Z,77.07
2022-11-06T05:17:25.580Z,77.38
2022-11-06T05:19:55.627Z,77.18
2022-11-06T05:22:42.750Z,77.53
2022-11-06T05:25:12.518Z,77.61
2022-11-06T05:27:42.251Z,78.00
2022-11-06T05:30:12.480Z,77.68
2022-11-06T05:32:42.396Z,77.67
2022-11-06T05:35:12.047Z,78.17
2022-11-06T05:37:41.886Z,78.09
2022-11-06T05:40:13.865Z,78.13
2022-11-06T05:42:44.689Z,78.13
2022-11-06T05:45:14.478Z,77.79
2022-11-06T05:47:44.221Z,78.34
2022-11-06T05:50:15.591Z,78.03
2022-11-06T05:52:45.427Z,78.23
2022-11-06T05:55:15.559Z,77.96
2022-11-06T05:57:45.433Z,77.24
2022-11-06T06:00:17.985Z,77.48
2022-11-06T06:02:48.302Z,77.01
2022-11-06T06:05:18.305Z,76.40
2022-11-06T06:07:48.080Z,76.66
2022-11-06T06:10:17.616Z,76.90
2022-11-06T06:12:47.360Z,77.66
2022-11-06T06:15:17.335Z,77.91
2022-11-06T06:17:47.205Z,77.38
2022-11-06T06:20:17.401Z,76.83
2022-11-06T06:22:55.267Z,76.83
2022-11-06T06:25:26.241Z,76.69
2022-11-06T06:27:56.638Z,77.20
2022-11-06T06:30:26.929Z,77.03
2022-11-06T06:32:56.326Z,77.52
2022-11-06T06:35:26.079Z,78.04
2022-11-06T06:37:55.897Z,77.59
2022-11-06T06:40:26.798Z,78.43
2022-11-06T06:43:00.010Z,77.78
2022-11-06T06:45:29.806Z,77.73
2022-11-06T06:48:04.516Z,77.56
2022-11-06T06:50:34.711Z,77.32
2022-11-06T06:53:04.245Z,77.23
2022-11-06T06:55:34.158Z,77.26
2022-11-06T06:58:04.270Z,77.53
2022-11-06T07:00:33.978Z,77.39
2022-11-06T07:03:03.834Z,77.17
2022-11-06T07:05:33.585Z,77.30
2022-11-06T07:08:03.405Z,77.47
2022-11-06T07:10:33.458Z,77.77
2022-11-06T07:13:04.499Z,77.33
2022-11-06T07:15:34.350Z,77.20
2022-11-06T07:18:05.319Z,77.13
2022-11-06T07:20:35.991Z,77.83
2022-11-06T07:23:09.409Z,77.27
2022-11-06T07:25:39.147Z,77.24
2022-11-06T07:28:10.520Z,76.78
2022-11-06T07:30:40.423Z,76.67
2022-11-06T07:33:10.166Z,77.01
2022-11-06T07:35:39.964Z,76.13
2022-11-06T07:38:11.198Z,75.82
2022-11-06T07:40:41.145Z,75.59
2022-11-06T07:43:13.856Z,76.31
2022-11-06T07:45:43.619Z,76.21
2022-11-06T07:48:13.734Z,76.72
2022-11-06T07:50:43.642Z,76.41
2022-11-06T07:53:14.025Z,75.84
2022-11-06T07:55:51.961Z,75.76
2022-11-06T07:58:22.075Z,75.85
2022-11-06T08:00:54.525Z,75.58
2022-11-06T08:03:25.302Z,75.26
2022-11-06T08:05:55.051Z,74.90
2022-11-06T08:08:25.015Z,74.92
2022-11-06T08:10:55.087Z,75.80
2022-11-06T08:13:26.109Z,75.72
2022-11-06T08:15:55.902Z,75.08
2022-11-06T08:18:25.387Z,76.19
2022-11-06T08:20:55.125Z,75.87
2022-11-06T08:23:25.165Z,75.87
2022-11-06T08:25:58.009Z,75.66
2022-11-06T08:28:28.003Z,75.27
2022-11-06T08:30:57.737Z,75.34
2022-11-06T08:33:27.482Z,75.13
2022-11-06T08:35:57.224Z,75.07
2022-11-06T08:38:27.011Z,75.07
2022-11-06T08:40:56.863Z,74.50
2022-11-06T08:43:27.400Z,74.44
2022-11-06T08:45:57.195Z,73.36
2022-11-06T08:48:26.683Z,73.29
2022-11-06T08:50:56.635Z,73.70
2022-11-06T08:53:26.254Z,73.62
2022-11-06T08:55:56.184Z,73.57
2022-11-06T08:58:25.807Z,72.92
2022-11-06T09:00:55.630Z,72.28
2022-11-06T09:03:25.673Z,72.29
2022-11-06T09:05:55.414Z,72.43
2022-11-06T09:08:25.249Z,71.93
2022-11-06T09:10:58.616Z,72.29
2022-11-06T09:13:27.354Z,72.11
2022-11-06T09:15:57.075Z,72.11
2022-11-06T09:18:26.837Z,71.94
2022-11-06T09:20:58.025Z,71.47
2022-11-06T09:23:28.111Z,71.68
2022-11-06T09:25:59.160Z,71.31
2022-11-06T09:28:28.907Z,71.32
2022-11-06T09:30:58.888Z,70.22
2022-11-06T09:33:28.647Z,70.37
2022-11-06T09:35:58.713Z,69.90
2022-11-06T09:38:28.448Z,70.27
2022-11-06T09:41:01.192Z,69.66
2022-11-06T09:44:03.636Z,69.58
2022-11-06T09:46:11.399Z,69.96
2022-11-06T09:48:44.347Z,69.15
2022-11-06T09:51:22.954Z,69.05
2022-11-06T09:54:04.295Z,69.35
2022-11-06T09:56:37.361Z,69.48
2022-11-06T09:59:10.140Z,69.43
2022-11-06T10:01:43.135Z,68.71
2022-11-06T10:04:28.226Z,68.37
2022-11-06T10:06:58.739Z,68.55
2022-11-06T10:09:28.880Z,68.38
2022-11-06T10:12:10.712Z,67.89
2022-11-06T10:15:01.506Z,67.86
2022-11-06T10:17:43.299Z,68.06
2022-11-06T10:20:27.140Z,68.47
2022-11-06T10:23:12.186Z,67.76
2022-11-06T10:25:45.040Z,67.41
2022-11-06T10:28:17.753Z,66.52
2022-11-06T10:30:59.395Z,66.32
2022-11-06T10:33:44.170Z,66.58
2022-11-06T10:36:18.007Z,66.47
2022-11-06T10:38:49.705Z,66.47
2022-11-06T10:41:22.527Z,66.69
2022-11-06T10:44:04.112Z,65.62
2022-11-06T10:46:48.392Z,65.50
2022-11-06T10:49:23.739Z,64.72
2022-11-06T10:52:27.022Z,63.11
2022-11-06T10:55:22.285Z,63.02
2022-11-06T10:58:01.109Z,64.43
2022-11-06T11:00:32.770Z,64.43
2022-11-06T11:03:06.441Z,64.21
2022-11-06T11:05:42.100Z,65.27
2022-11-06T11:08:33.141Z,65.62
2022-11-06T11:11:18.337Z,66.10
2022-11-06T11:13:53.543Z,66.07
2022-11-06T11:16:29.036Z,65.05
2022-11-06T11:19:17.952Z,65.08
2022-11-06T11:21:56.375Z,63.90
2022-11-06T11:24:26.479Z,63.90
2022-11-06T11:27:05.247Z,63.22
2022-11-06T11:29:44.877Z,62.83
2022-11-06T11:32:17.987Z,62.92
2022-11-06T11:34:56.291Z,62.92
2022-11-06T11:37:31.383Z,62.64
2022-11-06T11:40:22.698Z,62.31
2022-11-06T11:42:52.153Z,60.85
2022-11-06T11:45:22.527Z,60.50
2022-11-06T11:47:53.188Z,60.09
2022-11-06T11:50:31.614Z,59.56
2022-11-06T11:53:10.791Z,59.20
2022-11-06T11:55:44.043Z,59.49
2022-11-06T11:58:22.576Z,60.40
2022-11-06T12:00:58.115Z,59.89
2022-11-06T12:03:34.253Z,60.31
2022-11-06T12:06:10.363Z,59.66
2022-11-06T12:08:42.685Z,59.38
2022-11-06T12:11:15.776Z,58.93
2022-11-06T12:13:45.526Z,59.64
2022-11-06T12:16:18.341Z,59.56
2022-11-06T12:18:55.989Z,59.56
2022-11-06T12:21:37.077Z,59.95
2022-11-06T12:24:19.611Z,60.13
2022-11-06T12:27:11.571Z,59.28
2022-11-06T12:29:44.197Z,59.28
2022-11-06T12:32:43.160Z,59.50
2022-11-06T12:35:20.771Z,59.33
2022-11-06T12:38:05.184Z,59.79
2022-11-06T12:40:40.129Z,59.23
2022-11-06T12:43:18.859Z,59.70
2022-11-06T12:46:00.466Z,59.46
2022-11-06T12:48:38.848Z,59.26
2022-11-06T12:51:30.739Z,59.05
2022-11-06T12:54:14.924Z,58.93
2022-11-06T12:56:59.594Z,58.94
2022-11-06T12:59:38.233Z,58.58
2022-11-06T13:02:45.135Z,58.27
2022-11-06T13:05:20.158Z,58.53
2022-11-06T13:08:08.219Z,58.71
2022-11-06T13:10:59.015Z,58.59
2022-11-06T13:13:39.554Z,58.91
2022-11-06T13:16:14.418Z,59.04
2022-11-06T13:18:56.110Z,59.67
2022-11-06T13:21:34.444Z,58.88
2022-11-06T13:24:10.232Z,58.74
2022-11-06T13:26:43.283Z,58.78
2022-11-06T13:29:16.052Z,57.98
2022-11-06T13:31:57.414Z,58.80
2022-11-06T13:34:30.348Z,58.36
2022-11-06T13:37:00.785Z,58.92
2022-11-06T13:39:48.637Z,58.57
2022-11-06T13:42:26.864Z,58.57
2022-11-06T13:44:58.037Z,58.55
2022-11-06T13:47:30.789Z,58.20
2022-11-06T13:50:09.306Z,58.63
2022-11-06T13:52:54.468Z,58.47
2022-11-06T13:55:27.340Z,58.47
2022-11-06T13:58:21.237Z,58.64
2022-11-06T14:01:14.923Z,59.02
2022-11-06T14:03:51.284Z,59.05
2022-11-06T14:06:26.872Z,60.35
2022-11-06T14:08:59.364Z,60.35
2022-11-06T14:11:32.041Z,60.11
2022-11-06T14:14:17.500Z,61.06
2022-11-06T14:16:49.315Z,61.06
2022-11-06T14:19:30.373Z,62.47
2022-11-06T14:22:28.650Z,62.47
2022-11-06T14:25:01.892Z,63.18
2022-11-06T14:27:33.379Z,63.87
2022-11-06T14:30:09.382Z,65.13
2022-11-06T14:32:41.582Z,66.62
2022-11-06T14:35:36.572Z,67.42
2022-11-06T14:38:18.501Z,68.84
2022-11-06T14:40:48.383Z,69.90
2022-11-06T14:43:33.136Z,69.90
2022-11-06T14:46:06.013Z,70.20
2022-11-06T14:48:39.102Z,70.75
2022-11-06T14:51:11.957Z,71.39
2022-11-06T14:53:53.025Z,71.36
2022-11-06T14:56:28.443Z,72.18
2022-11-06T14:59:01.288Z,72.81
2022-11-06T15:01:34.065Z,73.20
2022-11-06T15:04:09.770Z,73.62
2022-11-06T15:06:43.522Z,73.62
2022-11-06T15:09:18.423Z,73.76
2022-11-06T15:11:56.450Z,73.76
2022-11-06T15:14:29.326Z,74.29
2022-11-06T15:17:13.647Z,74.65
2022-11-06T15:19:46.710Z,74.98
2022-11-06T15:22:31.082Z,74.70
2022-11-06T15:25:18.749Z,75.33
2022-11-06T15:27:54.230Z,74.72
2022-11-06T15:30:24.149Z,75.13
2022-11-06T15:32:55.676Z,76.13
2022-11-06T15:35:28.773Z,75.06
2022-11-06T15:38:01.557Z,75.74
2022-11-06T15:40:39.522Z,75.92
2022-11-06T15:43:27.162Z,76.53
2022-11-06T15:46:11.739Z,77.05
2022-11-06T15:48:41.500Z,77.51
2022-11-06T15:51:22.313Z,77.82
2022-11-06T15:53:52.107Z,78.29
2022-11-06T15:56:27.500Z,78.56
2022-11-06T15:59:14.634Z,78.96
2022-11-06T16:01:49.799Z,78.78
2022-11-06T16:04:22.546Z,79.52
2022-11-06T16:06:55.171Z,79.43
2022-11-06T16:09:27.396Z,79.78
2022-11-06T16:11:58.993Z,79.79
2022-11-06T16:14:28.744Z,80.85
2022-11-06T16:17:00.602Z,81.68
2022-11-06T16:19:38.367Z,82.19
2022-11-06T16:22:16.720Z,82.13
2022-11-06T16:24:49.780Z,81.55
2022-11-06T16:27:21.934Z,82.26
2022-11-06T16:30:02.337Z,81.29
2022-11-06T16:32:35.888Z,81.29
2022-11-06T16:35:32.449Z,81.68
2022-11-06T16:38:39.841Z,81.94
2022-11-06T16:40:53.386Z,81.42
2022-11-06T16:43:24.354Z,81.52
2022-11-06T16:46:03.817Z,81.78
2022-11-06T16:48:41.870Z,81.35
2022-11-06T16:51:14.568Z,81.10
2022-11-06T16:53:55.666Z,81.61
2022-11-06T16:56:33.482Z,81.08
2022-11-06T16:59:06.475Z,81.47
2022-11-06T17:01:45.261Z,81.63
2022-11-06T17:04:20.950Z,82.07
2022-11-06T17:06:51.819Z,81.99
2022-11-06T17:09:33.528Z,82.06
2022-11-06T17:12:04.633Z,82.11
2022-11-06T17:14:35.169Z,82.57
2022-11-06T17:17:05.518Z,83.14
2022-11-06T17:19:35.541Z,83.66
2022-11-06T17:22:08.338Z,84.17
2022-11-06T17:24:38.591Z,84.02
2022-11-06T17:27:08.677Z,83.96
2022-11-06T17:29:38.937Z,83.70
2022-11-06T17:32:08.749Z,83.53
2022-11-06T17:34:38.766Z,83.77
2022-11-06T17:37:10.027Z,83.99
2022-11-06T17:39:40.085Z,83.71
2022-11-06T17:42:09.812Z,84.02
2022-11-06T17:44:39.841Z,83.80
2022-11-06T17:47:09.861Z,83.79
2022-11-06T17:49:39.948Z,84.10
2022-11-06T17:52:09.758Z,83.69
2022-11-06T17:54:40.663Z,82.94
2022-11-06T17:57:10.399Z,82.89
2022-11-06T17:59:40.415Z,82.73
2022-11-06T18:02:25.426Z,82.33
2022-11-06T18:04:49.881Z,82.59
2022-11-06T18:07:19.679Z,81.90
2022-11-06T18:09:49.717Z,81.41
2022-11-06T18:12:21.388Z,81.83
2022-11-06T18:14:51.468Z,81.50
2022-11-06T18:17:21.201Z,81.96
2022-11-06T18:19:51.570Z,81.82
2022-11-06T18:22:21.308Z,81.27
2022-11-06T18:24:51.028Z,81.46
2022-11-06T18:27:20.793Z,80.90
2022-11-06T18:29:50.806Z,80.80
2022-11-06T18:32:20.242Z,81.10
2022-11-06T18:34:50.032Z,80.70
2022-11-06T18:37:19.775Z,80.37
2022-11-06T18:39:49.495Z,80.41
2022-11-06T18:42:19.143Z,79.92
2022-11-06T18:44:48.863Z,80.24
2022-11-06T18:47:18.341Z,79.90
2022-11-06T18:49:48.332Z,80.08
2022-11-06T18:52:37.994Z,80.07
2022-11-06T18:54:51.039Z,80.16
2022-11-06T18:57:20.800Z,79.81
2022-11-06T18:59:50.548Z,80.20
2022-11-06T19:02:20.111Z,80.48
2022-11-06T19:04:50.025Z,79.66
2022-11-06T19:07:20.040Z,79.46
2022-11-06T19:09:49.934Z,80.07
2022-11-06T19:12:19.709Z,80.25
2022-11-06T19:14:49.731Z,80.08
2022-11-06T19:17:19.449Z,80.62
2022-11-06T19:19:49.414Z,80.84
2022-11-06T19:22:18.924Z,80.30
2022-11-06T19:24:48.446Z,80.30
2022-11-06T19:27:18.176Z,80.03
2022-11-06T19:29:48.065Z,80.84
2022-11-06T19:32:18.748Z,81.12
2022-11-06T19:34:48.633Z,81.25
2022-11-06T19:37:18.373Z,79.94
2022-11-06T19:39:48.574Z,80.37
2022-11-06T19:42:19.174Z,80.46
2022-11-06T19:44:48.918Z,80.74
2022-11-06T19:47:18.661Z,80.57
2022-11-06T19:49:48.171Z,81.21
2022-11-06T19:52:42.633Z,80.78
2022-11-06T19:54:49.615Z,81.03
2022-11-06T19:57:28.766Z,81.69
2022-11-06T19:59:51.060Z,81.69
2022-11-06T20:02:20.988Z,81.92
2022-11-06T20:04:50.777Z,81.32
2022-11-06T20:07:20.525Z,81.92
2022-11-06T20:09:50.553Z,81.50
2022-11-06T20:12:20.250Z,81.50
2022-11-06T20:14:50.514Z,81.86
2022-11-06T20:17:20.246Z,81.73
2022-11-06T20:19:50.051Z,82.18
2022-11-06T20:22:19.770Z,81.65
2022-11-06T20:24:49.521Z,81.94
2022-11-06T20:27:19.331Z,81.83
2022-11-06T20:29:49.062Z,82.80
2022-11-06T20:32:19.446Z,82.80
2022-11-06T20:34:49.479Z,81.28
2022-11-06T20:37:19.592Z,82.05
2022-11-06T20:39:51.352Z,81.52
2022-11-06T20:42:21.162Z,81.73
2022-11-06T20:44:50.589Z,82.39
2022-11-06T20:47:20.322Z,82.70
2022-11-06T20:49:50.293Z,83.16
2022-11-06T20:52:19.726Z,83.30
2022-11-06T20:54:49.673Z,82.98
2022-11-06T20:57:19.463Z,82.51
2022-11-06T20:59:49.361Z,82.83
2022-11-06T21:02:19.763Z,82.83
2022-11-06T21:04:49.648Z,82.93
2022-11-06T21:07:19.488Z,82.96
2022-11-06T21:09:49.279Z,82.29
2022-11-06T21:12:20.384Z,82.64
2022-11-06T21:14:50.261Z,82.82
2022-11-06T21:17:19.736Z,83.02
2022-11-06T21:19:49.541Z,82.46
2022-11-06T21:22:18.985Z,82.22
2022-11-06T21:24:49.020Z,82.53
2022-11-06T21:27:19.211Z,83.04
2022-11-06T21:29:48.961Z,83.04
2022-11-06T21:32:18.701Z,82.93
2022-11-06T21:34:48.318Z,83.01
2022-11-06T21:37:18.341Z,82.93
2022-11-06T21:39:48.433Z,83.24
2022-11-06T21:42:17.900Z,82.54
2022-11-06T21:44:48.166Z,83.16
2022-11-06T21:47:17.643Z,83.09
2022-11-06T21:49:49.033Z,82.69
2022-11-06T21:52:37.135Z,82.11
2022-11-06T21:55:28.154Z,82.89
2022-11-06T21:57:58.182Z,82.58
2022-11-06T22:00:27.802Z,82.96
2022-11-06T22:02:57.741Z,82.96
2022-11-06T22:05:27.264Z,82.48
2022-11-06T22:07:56.981Z,82.88
2022-11-06T22:10:27.526Z,82.15
2022-11-06T22:12:57.264Z,81.66
2022-11-06T22:15:27.409Z,82.07
2022-11-06T22:17:57.170Z,83.08
2022-11-06T22:20:26.889Z,82.71
2022-11-06T22:22:56.629Z,82.51
2022-11-06T22:25:26.353Z,83.29
2022-11-06T22:27:56.096Z,82.02
2022-11-06T22:30:25.672Z,83.37
2022-11-06T22:32:55.416Z,83.14
2022-11-06T22:35:24.867Z,82.87
2022-11-06T22:37:54.612Z,83.21
2022-11-06T22:40:24.325Z,82.93
2022-11-06T22:42:54.054Z,83.24
2022-11-06T22:45:23.865Z,83.29
2022-11-06T22:47:53.984Z,83.59
2022-11-06T22:50:23.770Z,83.57
2022-11-06T22:52:53.500Z,83.45
2022-11-06T22:55:23.236Z,83.84
2022-11-06T22:57:52.976Z,83.80
2022-11-06T23:00:24.206Z,83.68
2022-11-06T23:02:54.338Z,82.57
2022-11-06T23:05:24.140Z,83.49
2022-11-06T23:07:53.874Z,84.16
2022-11-06T23:10:29.196Z,83.36
2022-11-06T23:12:59.143Z,83.21
2022-11-06T23:15:28.872Z,83.18
2022-11-06T23:17:58.834Z,82.93
2022-11-06T23:20:32.122Z,83.67
2022-11-06T23:23:03.095Z,84.09
2022-11-06T23:25:33.155Z,83.74
2022-11-06T23:28:03.846Z,83.88
2022-11-06T23:30:35.406Z,83.47
2022-11-06T23:33:05.139Z,83.03
2022-11-06T23:35:35.490Z,83.60
2022-11-06T23:38:06.578Z,83.16
2022-11-06T23:40:36.306Z,82.62
2022-11-06T23:43:06.127Z,82.83
2022-11-06T23:45:51.290Z,82.85
2022-11-06T23:48:21.013Z,81.90
2022-11-06T23:50:50.742Z,82.21
2022-11-06T23:53:20.753Z,81.80
2022-11-06T23:55:50.493Z,82.72
2022-11-06T23:58:20.272Z,82.64
